createdAt,value
2018-11-10T00:00:58.424Z,83.33
2018-11-10T00:03:27.420Z,75.87
2018-11-10T00:05:56.393Z,80.47
2018-11-10T00:08:25.413Z,70.10
2018-11-10T00:10:54.203Z,67.73
2018-11-10T00:13:23.112Z,73.30
2018-11-10T00:15:52.101Z,82.13
2018-11-10T00:18:20.993Z,66.80
2018-11-10T00:20:49.949Z,70.43
2018-11-10T00:23:18.792Z,69.30
2018-11-10T00:25:47.892Z,72.07
2018-11-10T00:28:16.864Z,77.77
2018-11-10T00:30:45.771Z,63.57
2018-11-10T00:33:14.752Z,71.57
2018-11-10T00:35:43.620Z,70.37
2018-11-10T00:38:12.554Z,66.57
2018-11-10T00:40:41.492Z,61.03
2018-11-10T00:43:10.401Z,64.93
2018-11-10T00:45:39.306Z,67.47
2018-11-10T00:48:08.232Z,62.73
2018-11-10T00:50:37.455Z,63.20
2018-11-10T00:53:06.592Z,68.83
2018-11-10T00:55:35.589Z,50.40
2018-11-10T00:58:04.937Z,52.23
2018-11-10T01:00:33.866Z,46.17
2018-11-10T01:03:02.799Z,51.50
2018-11-10T01:05:31.692Z,41.90
2018-11-10T01:08:00.617Z,46.07
2018-11-10T01:10:29.664Z,47.47
2018-11-10T01:12:58.564Z,44.63
2018-11-10T01:15:27.495Z,53.17
2018-11-10T01:17:56.434Z,47.20
2018-11-10T01:20:25.321Z,48.70
2018-11-10T01:22:54.231Z,41.13
2018-11-10T01:25:23.119Z,49.87
2018-11-10T01:27:52.072Z,48.83
2018-11-10T01:30:20.956Z,48.80
2018-11-10T01:32:49.869Z,56.13
2018-11-10T01:35:18.824Z,50.87
2018-11-10T01:37:47.761Z,53.37
2018-11-10T01:40:16.667Z,56.37
2018-11-10T01:42:45.549Z,51.53
2018-11-10T01:45:15.641Z,49.77
2018-11-10T01:47:44.958Z,54.67
2018-11-10T01:50:13.961Z,46.77
2018-11-10T01:52:43.043Z,55.13
2018-11-10T01:55:12.320Z,51.77
2018-11-10T01:57:42.027Z,41.73
2018-11-10T02:00:13.478Z,50.93
2018-11-10T02:02:43.012Z,42.90
2018-11-10T02:05:11.929Z,45.13
2018-11-10T02:07:41.508Z,43.73
2018-11-10T02:10:11.114Z,47.33
2018-11-10T02:12:40.205Z,55.63
2018-11-10T02:15:12.276Z,45.53
2018-11-10T02:17:41.165Z,45.27
2018-11-10T02:20:11.588Z,44.23
2018-11-10T02:22:40.695Z,37.23
2018-11-10T02:25:10.907Z,45.00
2018-11-10T02:27:40.261Z,44.43
2018-11-10T02:30:10.437Z,44.93
2018-11-10T02:32:39.310Z,44.60
2018-11-10T02:35:09.030Z,41.47
2018-11-10T02:37:38.738Z,41.87
2018-11-10T02:40:09.280Z,42.87
2018-11-10T02:42:38.249Z,47.20
2018-11-10T02:45:08.688Z,41.40
2018-11-10T02:47:37.557Z,39.63
2018-11-10T02:50:06.476Z,44.13
2018-11-10T02:52:35.600Z,39.07
2018-11-10T02:55:05.705Z,40.30
2018-11-10T02:57:34.580Z,35.40
2018-11-10T03:00:03.584Z,34.90
2018-11-10T03:02:32.462Z,35.40
2018-11-10T03:05:01.350Z,30.30
2018-11-10T03:07:30.212Z,32.03
2018-11-10T03:09:59.150Z,30.50
2018-11-10T03:12:28.032Z,35.13
2018-11-10T03:14:57.016Z,25.83
2018-11-10T03:17:25.915Z,32.17
2018-11-10T03:19:54.820Z,32.00
2018-11-10T03:22:23.688Z,36.83
2018-11-10T03:24:52.581Z,31.57
2018-11-10T03:27:22.189Z,36.17
2018-11-10T03:29:51.097Z,35.70
2018-11-10T03:32:20.071Z,36.47
2018-11-10T03:34:49.092Z,37.37
2018-11-10T03:37:17.978Z,34.33
2018-11-10T03:39:46.889Z,30.07
2018-11-10T03:42:15.807Z,30.63
2018-11-10T03:44:44.728Z,33.17
2018-11-10T03:47:13.625Z,32.93
2018-11-10T03:49:42.524Z,30.67
2018-11-10T03:52:11.710Z,30.77
2018-11-10T03:54:40.728Z,30.90
2018-11-10T03:57:09.611Z,34.27
2018-11-10T03:59:38.552Z,35.83
2018-11-10T04:02:07.476Z,32.17
2018-11-10T04:04:36.364Z,28.27
2018-11-10T04:07:05.289Z,33.80
2018-11-10T04:09:34.144Z,25.50
2018-11-10T04:12:03.142Z,32.30
2018-11-10T04:14:32.037Z,29.37
2018-11-10T04:17:00.949Z,35.00
2018-11-10T04:19:29.832Z,27.80
2018-11-10T04:21:58.713Z,30.70
2018-11-10T04:24:27.667Z,24.27
2018-11-10T04:26:56.693Z,29.07
2018-11-10T04:29:25.551Z,32.80
2018-11-10T04:31:54.480Z,26.90
2018-11-10T04:34:23.362Z,38.83
2018-11-10T04:36:52.264Z,36.20
2018-11-10T04:39:21.150Z,39.80
2018-11-10T04:41:50.042Z,37.20
2018-11-10T04:44:18.929Z,29.60
2018-11-10T04:46:47.825Z,38.30
2018-11-10T04:49:16.708Z,33.60
2018-11-10T04:51:45.602Z,33.77
2018-11-10T04:54:14.489Z,39.47
2018-11-10T04:56:43.379Z,36.47
2018-11-10T04:59:12.269Z,39.87
2018-11-10T05:01:41.162Z,37.37
2018-11-10T05:04:10.167Z,37.57
2018-11-10T05:06:39.133Z,36.57
2018-11-10T05:09:08.978Z,31.20
2018-11-10T05:11:37.957Z,32.70
2018-11-10T05:14:06.871Z,36.13
2018-11-10T05:16:35.750Z,32.43
2018-11-10T05:19:05.270Z,32.40
2018-11-10T05:21:34.141Z,37.60
2018-11-10T05:24:03.130Z,33.27
2018-11-10T05:26:32.008Z,35.80
2018-11-10T05:29:00.897Z,32.23
2018-11-10T05:31:29.864Z,34.97
2018-11-10T05:33:58.738Z,36.00
2018-11-10T05:38:48.736Z,28.30
2018-11-10T05:41:17.799Z,31.37
2018-11-10T05:43:46.773Z,30.00
2018-11-10T05:46:15.667Z,32.63
2018-11-10T05:48:44.544Z,29.30
2018-11-10T05:51:13.423Z,34.13
2018-11-10T05:53:42.327Z,27.93
2018-11-10T05:56:11.843Z,36.70
2018-11-10T05:58:41.061Z,28.60
2018-11-10T06:01:09.953Z,36.03
2018-11-10T06:03:39.053Z,32.93
2018-11-10T06:06:08.231Z,31.60
2018-11-10T06:08:37.234Z,38.40
2018-11-10T06:11:06.256Z,39.00
2018-11-10T06:13:35.202Z,31.37
2018-11-10T06:16:04.169Z,37.97
2018-11-10T06:18:33.053Z,33.77
2018-11-10T06:21:01.973Z,34.80
2018-11-10T06:23:30.890Z,34.30
2018-11-10T06:25:59.820Z,31.07
2018-11-10T06:28:28.768Z,33.53
2018-11-10T06:30:57.653Z,31.20
2018-11-10T06:33:26.596Z,34.47
2018-11-10T06:35:55.477Z,29.20
2018-11-10T06:38:24.386Z,34.03
2018-11-10T06:40:53.275Z,31.03
2018-11-10T06:43:22.162Z,30.73
2018-11-10T06:45:51.032Z,35.27
2018-11-10T06:48:19.925Z,27.83
2018-11-10T06:50:48.921Z,29.97
2018-11-10T06:53:17.825Z,29.60
2018-11-10T06:55:46.719Z,31.00
2018-11-10T06:58:15.670Z,27.70
2018-11-10T07:00:44.561Z,31.33
2018-11-10T07:03:13.492Z,27.50
2018-11-10T07:05:42.367Z,34.13
2018-11-10T07:08:11.893Z,24.77
2018-11-10T07:10:40.816Z,26.90
2018-11-10T07:13:09.713Z,26.63
2018-11-10T07:15:38.620Z,27.07
2018-11-10T07:18:07.566Z,26.70
2018-11-10T07:20:36.403Z,27.57
2018-11-10T07:23:05.433Z,28.00
2018-11-10T07:25:34.309Z,23.33
2018-11-10T07:28:03.206Z,28.60
2018-11-10T07:30:32.132Z,22.27
2018-11-10T07:33:01.040Z,27.37
2018-11-10T07:35:29.914Z,32.67
2018-11-10T07:37:58.781Z,22.00
2018-11-10T07:40:27.658Z,28.37
2018-11-10T07:42:56.641Z,22.67
2018-11-10T07:45:25.477Z,26.60
2018-11-10T07:47:54.379Z,33.63
2018-11-10T07:50:23.270Z,20.93
2018-11-10T07:52:52.143Z,25.63
2018-11-10T07:55:21.141Z,29.83
2018-11-10T07:57:50.074Z,23.83
2018-11-10T08:00:19.362Z,30.60
2018-11-10T08:02:48.261Z,25.07
2018-11-10T08:05:17.414Z,21.30
2018-11-10T08:07:46.337Z,24.93
2018-11-10T08:10:16.692Z,21.70
2018-11-10T08:12:45.728Z,20.67
2018-11-10T08:15:15.788Z,25.30
2018-11-10T08:17:44.655Z,21.63
2018-11-10T08:20:14.233Z,26.70
2018-11-10T08:22:43.326Z,23.20
2018-11-10T08:25:13.622Z,26.13
2018-11-10T08:27:42.690Z,40.13
2018-11-10T08:30:12.936Z,31.43
2018-11-10T08:32:42.420Z,28.33
2018-11-10T08:35:12.370Z,28.37
2018-11-10T08:37:41.278Z,27.77
2018-11-10T08:40:12.813Z,26.47
2018-11-10T08:42:41.740Z,23.30
2018-11-10T08:45:12.390Z,22.10
2018-11-10T08:47:42.072Z,27.10
2018-11-10T08:50:13.206Z,26.80
2018-11-10T08:52:42.585Z,27.17
2018-11-10T08:55:12.509Z,23.00
2018-11-10T09:00:42.192Z,23.33
2018-11-10T09:03:12.599Z,18.73
2018-11-10T09:05:41.563Z,28.37
2018-11-10T09:08:10.453Z,20.13
2018-11-10T09:10:39.431Z,23.10
2018-11-10T09:13:08.738Z,26.60
2018-11-10T09:15:37.833Z,28.07
2018-11-10T09:18:06.719Z,27.37
2018-11-10T09:20:35.673Z,29.10
2018-11-10T09:23:04.669Z,29.17
2018-11-10T09:25:33.612Z,31.30
2018-11-10T09:28:02.613Z,26.63
2018-11-10T09:30:31.588Z,29.33
2018-11-10T09:33:00.645Z,29.93
2018-11-10T09:35:29.724Z,25.67
2018-11-10T09:37:58.611Z,26.57
2018-11-10T09:40:27.798Z,24.80
2018-11-10T09:42:56.723Z,25.07
2018-11-10T09:45:27.554Z,26.43
2018-11-10T09:48:00.779Z,28.77
2018-11-10T09:50:29.721Z,31.63
2018-11-10T09:52:58.787Z,26.63
2018-11-10T09:55:27.722Z,29.10
2018-11-10T09:57:56.727Z,31.03
2018-11-10T10:00:25.692Z,30.67
2018-11-10T10:02:54.584Z,32.50
2018-11-10T10:05:23.522Z,26.80
2018-11-10T10:07:52.444Z,26.93
2018-11-10T10:10:21.396Z,26.43
2018-11-10T10:12:50.228Z,24.57
2018-11-10T10:15:19.503Z,24.57
2018-11-10T10:17:49.029Z,26.10
2018-11-10T10:20:19.123Z,25.43
2018-11-10T10:22:49.071Z,23.33
2018-11-10T10:25:18.559Z,22.07
2018-11-10T10:27:48.165Z,23.93
2018-11-10T10:30:18.715Z,23.33
2018-11-10T10:32:48.408Z,28.30
2018-11-10T10:35:17.328Z,25.50
2018-11-10T10:37:47.104Z,25.67
2018-11-10T10:40:16.490Z,23.27
2018-11-10T10:42:45.851Z,25.13
2018-11-10T10:45:16.254Z,27.93
2018-11-10T10:47:45.545Z,28.37
2018-11-10T10:50:16.504Z,26.50
2018-11-10T10:52:45.358Z,23.23
2018-11-10T10:55:15.285Z,24.00
2018-11-10T10:57:45.291Z,25.20
2018-11-10T11:00:19.676Z,25.87
2018-11-10T11:02:54.057Z,22.33
2018-11-10T11:05:28.281Z,24.17
2018-11-10T11:07:57.141Z,25.60
2018-11-10T11:10:26.028Z,27.10
2018-11-10T11:12:54.947Z,23.77
2018-11-10T11:15:24.031Z,23.27
2018-11-10T11:17:52.804Z,25.97
2018-11-10T11:20:21.772Z,22.77
2018-11-10T11:22:50.645Z,26.23
2018-11-10T11:25:19.820Z,23.20
2018-11-10T11:27:48.754Z,27.67
2018-11-10T11:30:17.626Z,24.97
2018-11-10T11:32:46.491Z,25.27
2018-11-10T11:35:15.523Z,25.80
2018-11-10T11:37:44.376Z,21.07
2018-11-10T11:40:14.277Z,22.50
2018-11-10T11:42:43.674Z,25.27
2018-11-10T11:45:13.381Z,24.80
2018-11-10T11:47:42.943Z,23.37
2018-11-10T11:50:13.120Z,25.13
2018-11-10T11:52:42.628Z,24.90
2018-11-10T11:55:11.980Z,23.73
2018-11-10T11:57:41.048Z,24.60
2018-11-10T12:00:11.945Z,23.27
2018-11-10T12:02:41.368Z,21.93
2018-11-10T12:05:11.472Z,25.43
2018-11-10T12:07:40.435Z,22.60
2018-11-10T12:10:10.995Z,21.53
2018-11-10T12:12:39.880Z,22.13
2018-11-10T12:15:09.716Z,21.73
2018-11-10T12:17:38.704Z,26.63
2018-11-10T12:20:08.930Z,24.37
2018-11-10T12:22:37.822Z,25.60
2018-11-10T12:25:07.304Z,24.37
2018-11-10T12:27:36.202Z,22.40
2018-11-10T12:30:06.087Z,21.77
2018-11-10T12:32:34.969Z,25.33
2018-11-10T12:35:03.998Z,23.83
2018-11-10T12:37:32.880Z,23.07
2018-11-10T12:40:01.765Z,20.80
2018-11-10T12:42:30.628Z,21.30
2018-11-10T12:44:59.504Z,23.07
2018-11-10T12:47:28.381Z,22.87
2018-11-10T12:49:57.221Z,27.83
2018-11-10T12:52:26.140Z,24.07
2018-11-10T12:54:55.042Z,24.10
2018-11-10T12:57:24.033Z,26.67
2018-11-10T12:59:52.987Z,23.73
2018-11-10T13:02:21.873Z,21.67
2018-11-10T13:04:50.759Z,21.57
2018-11-10T13:07:19.668Z,23.33
2018-11-10T13:09:48.538Z,21.77
2018-11-10T13:12:17.447Z,24.33
2018-11-10T13:14:46.309Z,26.80
2018-11-10T13:17:15.259Z,25.00
2018-11-10T13:19:44.093Z,26.10
2018-11-10T13:22:12.978Z,25.90
2018-11-10T13:24:41.857Z,27.90
2018-11-10T13:27:10.724Z,24.40
2018-11-10T13:29:39.629Z,22.07
2018-11-10T13:32:08.564Z,24.43
2018-11-10T13:34:37.445Z,22.47
2018-11-10T13:37:06.435Z,27.80
2018-11-10T13:39:35.393Z,26.67
2018-11-10T13:42:04.665Z,24.23
2018-11-10T13:44:33.572Z,18.77
2018-11-10T13:47:02.437Z,20.00
2018-11-10T13:49:31.316Z,25.57
2018-11-10T13:52:00.553Z,24.87
2018-11-10T13:54:29.093Z,22.53
2018-11-10T13:56:57.978Z,22.10
2018-11-10T13:59:26.910Z,24.73
2018-11-10T14:01:55.708Z,22.50
2018-11-10T14:04:24.569Z,22.17
2018-11-10T14:06:53.427Z,26.50
2018-11-10T14:09:22.375Z,26.47
2018-11-10T14:11:51.273Z,22.23
2018-11-10T14:14:20.167Z,22.80
2018-11-10T14:16:49.060Z,21.57
2018-11-10T14:19:18.087Z,25.73
2018-11-10T14:21:46.941Z,35.10
2018-11-10T14:24:15.898Z,20.93
2018-11-10T14:26:44.777Z,26.30
2018-11-10T14:29:13.643Z,27.13
2018-11-10T14:31:42.525Z,24.53
2018-11-10T14:34:11.428Z,27.00
2018-11-10T14:36:40.346Z,33.40
2018-11-10T14:39:10.412Z,31.20
2018-11-10T14:41:39.491Z,26.93
2018-11-10T14:44:09.165Z,26.37
2018-11-10T14:46:38.202Z,22.93
2018-11-10T14:49:07.480Z,26.53
2018-11-10T14:51:36.323Z,24.70
2018-11-10T14:54:05.300Z,29.13
2018-11-10T14:56:34.383Z,27.77
2018-11-10T14:59:03.784Z,23.40
2018-11-10T15:01:33.077Z,24.37
2018-11-10T15:04:01.959Z,25.77
2018-11-10T15:06:30.948Z,29.63
2018-11-10T15:08:59.825Z,29.10
2018-11-10T15:11:28.836Z,31.03
2018-11-10T15:13:57.733Z,27.47
2018-11-10T15:16:26.597Z,27.90
2018-11-10T15:18:55.490Z,34.13
2018-11-10T15:21:24.362Z,27.63
2018-11-10T15:23:53.253Z,35.03
2018-11-10T15:26:22.205Z,33.97
2018-11-10T15:28:51.068Z,32.57
2018-11-10T15:31:19.952Z,34.30
2018-11-10T15:33:48.863Z,31.90
2018-11-10T15:36:17.780Z,38.30
2018-11-10T15:38:46.672Z,32.30
2018-11-10T15:41:15.535Z,36.03
2018-11-10T15:43:44.405Z,30.57
2018-11-10T15:46:13.315Z,35.70
2018-11-10T15:48:42.207Z,36.07
2018-11-10T15:54:08.924Z,40.50
2018-11-10T15:56:37.804Z,40.13
2018-11-10T15:59:06.769Z,39.07
2018-11-10T16:01:35.690Z,43.90
2018-11-10T16:04:04.817Z,40.90
2018-11-10T16:06:33.829Z,42.17
2018-11-10T16:09:02.840Z,46.67
2018-11-10T16:11:31.700Z,39.23
2018-11-10T16:14:00.650Z,39.27
2018-11-10T16:16:29.521Z,39.23
2018-11-10T16:18:58.405Z,41.97
2018-11-10T16:21:27.265Z,44.07
2018-11-10T16:23:56.154Z,35.27
2018-11-10T16:26:25.008Z,45.20
2018-11-10T16:28:53.882Z,40.03
2018-11-10T16:31:22.946Z,45.23
2018-11-10T16:33:51.928Z,44.43
2018-11-10T16:36:20.957Z,44.67
2018-11-10T16:38:50.252Z,45.37
2018-11-10T16:41:19.145Z,49.13
2018-11-10T16:43:48.000Z,48.30
2018-11-10T16:46:16.938Z,44.80
2018-11-10T16:48:45.817Z,55.10
2018-11-10T16:51:14.681Z,46.70
2018-11-10T16:53:43.572Z,48.53
2018-11-10T16:56:12.424Z,52.63
2018-11-10T16:58:41.308Z,40.77
2018-11-10T17:01:10.378Z,54.30
2018-11-10T17:03:39.593Z,56.57
2018-11-10T17:06:08.455Z,55.70
2018-11-10T17:08:37.336Z,55.07
2018-11-10T17:11:06.444Z,55.37
2018-11-10T17:13:36.422Z,57.90
2018-11-10T17:16:05.373Z,57.93
2018-11-10T17:18:34.270Z,59.83
2018-11-10T17:21:03.143Z,64.30
2018-11-10T17:23:32.103Z,65.20
2018-11-10T17:26:00.992Z,60.83
2018-11-10T17:28:29.865Z,55.60
2018-11-10T17:30:58.790Z,69.27
2018-11-10T17:33:27.723Z,64.53
2018-11-10T17:35:56.679Z,72.17
2018-11-10T17:38:25.581Z,67.67
2018-11-10T17:40:54.459Z,67.17
2018-11-10T17:43:23.304Z,71.80
2018-11-10T17:45:52.189Z,68.53
2018-11-10T17:48:21.194Z,65.53
2018-11-10T17:50:49.976Z,78.67
2018-11-10T17:53:18.858Z,70.90
2018-11-10T17:55:47.735Z,70.27
2018-11-10T17:58:16.566Z,63.63
2018-11-10T18:00:45.441Z,72.33
2018-11-10T18:03:14.384Z,73.73
2018-11-10T18:05:43.274Z,72.60
2018-11-10T18:08:12.145Z,74.53
2018-11-10T18:10:41.016Z,78.57
2018-11-10T18:13:09.941Z,73.07
2018-11-10T18:15:38.727Z,75.13
2018-11-10T18:18:07.597Z,76.33
2018-11-10T18:20:36.460Z,69.57
2018-11-10T18:23:05.500Z,70.17
2018-11-10T18:25:34.418Z,75.00
2018-11-10T18:28:03.381Z,74.17
2018-11-10T18:30:32.486Z,82.53
2018-11-10T18:33:01.394Z,76.13
2018-11-10T18:35:30.341Z,69.30
2018-11-10T18:37:59.200Z,76.27
2018-11-10T18:40:28.088Z,74.17
2018-11-10T18:42:57.144Z,75.37
2018-11-10T18:45:26.017Z,69.20
2018-11-10T18:47:54.941Z,79.07
2018-11-10T18:50:23.826Z,74.47
2018-11-10T18:52:52.701Z,69.27
2018-11-10T18:55:21.624Z,72.97
2018-11-10T18:57:50.489Z,78.97
2018-11-10T19:00:19.368Z,77.23
2018-11-10T19:02:48.301Z,73.50
2018-11-10T19:05:17.793Z,80.33
2018-11-10T19:07:46.679Z,75.73
2018-11-10T19:10:16.685Z,77.37
2018-11-10T19:12:45.680Z,69.90
2018-11-10T19:15:16.788Z,73.90
2018-11-10T19:17:45.689Z,62.10
2018-11-10T19:20:15.104Z,72.73
2018-11-10T19:22:44.047Z,72.03
2018-11-10T19:25:13.621Z,83.90
2018-11-10T19:27:42.628Z,68.83
2018-11-10T19:30:16.408Z,64.63
2018-11-10T19:32:46.390Z,57.40
2018-11-10T19:35:16.345Z,57.53
2018-11-10T19:37:45.861Z,67.30
2018-11-10T19:40:14.899Z,70.07
2018-11-10T19:42:44.883Z,76.03
2018-11-10T19:45:13.953Z,61.90
2018-11-10T19:47:43.892Z,59.53
2018-11-10T19:50:13.330Z,60.40
2018-11-10T19:52:42.488Z,60.80
2018-11-10T19:55:13.583Z,56.40
2018-11-10T19:57:42.525Z,59.63
2018-11-10T20:00:21.478Z,64.93
2018-11-10T20:02:50.354Z,56.10
2018-11-10T20:05:19.216Z,62.73
2018-11-10T20:07:48.102Z,54.37
2018-11-10T20:10:17.009Z,53.60
2018-11-10T20:12:46.205Z,58.83
2018-11-10T20:15:15.907Z,61.70
2018-11-10T20:17:45.043Z,61.17
2018-11-10T20:20:15.445Z,57.53
2018-11-10T20:22:44.753Z,58.00
2018-11-10T20:25:14.961Z,59.63
2018-11-10T20:27:43.825Z,56.07
2018-11-10T20:30:15.777Z,60.50
2018-11-10T20:32:45.370Z,57.30
2018-11-10T20:35:14.716Z,61.70
2018-11-10T20:37:44.353Z,58.37
2018-11-10T20:40:14.241Z,55.83
2018-11-10T20:42:44.000Z,58.50
2018-11-10T20:45:15.030Z,64.30
2018-11-10T20:47:44.004Z,64.27
2018-11-10T20:50:13.608Z,52.70
2018-11-10T20:52:42.703Z,72.33
2018-11-10T20:55:12.192Z,60.80
2018-11-10T20:57:41.201Z,60.83
2018-11-10T21:00:20.109Z,59.30
2018-11-10T21:02:48.971Z,59.97
2018-11-10T21:05:17.992Z,63.37
2018-11-10T21:07:46.911Z,58.87
2018-11-10T21:10:17.152Z,59.57
2018-11-10T21:12:48.206Z,57.17
2018-11-10T21:15:17.832Z,59.27
2018-11-10T21:17:46.963Z,59.07
2018-11-10T21:20:16.202Z,58.33
2018-11-10T21:22:45.464Z,64.90
2018-11-10T21:25:15.777Z,58.30
2018-11-10T21:27:45.081Z,56.80
2018-11-10T21:30:15.637Z,53.33
2018-11-10T21:32:45.331Z,64.53
2018-11-10T21:35:14.419Z,61.87
2018-11-10T21:37:43.425Z,56.67
2018-11-10T21:40:14.877Z,55.97
2018-11-10T21:42:44.076Z,53.53
2018-11-10T21:45:14.077Z,53.97
2018-11-10T21:47:43.169Z,55.97
2018-11-10T21:50:13.516Z,56.40
2018-11-10T21:52:43.214Z,53.57
2018-11-10T21:55:13.754Z,58.77
2018-11-10T21:57:43.466Z,54.97
2018-11-10T22:00:14.282Z,48.20
2018-11-10T22:02:43.800Z,50.20
2018-11-10T22:05:12.780Z,56.23
2018-11-10T22:07:41.837Z,54.60
2018-11-10T22:10:15.617Z,52.40
2018-11-10T22:12:44.903Z,53.57
2018-11-10T22:15:16.166Z,62.23
2018-11-10T22:17:45.556Z,58.60
2018-11-10T22:20:15.656Z,64.80
2018-11-10T22:22:44.566Z,55.80
2018-11-10T22:25:13.844Z,60.00
2018-11-10T22:27:43.890Z,62.33
2018-11-10T22:30:14.206Z,53.83
2018-11-10T22:32:43.709Z,59.67
2018-11-10T22:35:12.681Z,57.97
2018-11-10T22:37:41.608Z,48.63
2018-11-10T22:40:13.333Z,45.90
2018-11-10T22:42:42.514Z,54.13
2018-11-10T22:45:12.766Z,49.00
2018-11-10T22:47:42.110Z,50.93
2018-11-10T22:50:13.504Z,53.43
2018-11-10T22:52:42.704Z,59.00
2018-11-10T22:55:11.869Z,44.17
2018-11-10T22:57:40.913Z,56.77
2018-11-10T23:00:14.758Z,57.57
2018-11-10T23:02:45.252Z,49.17
2018-11-10T23:05:14.538Z,53.93
2018-11-10T23:07:43.532Z,52.37
2018-11-10T23:10:13.232Z,50.10
2018-11-10T23:12:42.552Z,44.50
2018-11-10T23:15:11.630Z,49.70
2018-11-10T23:17:40.735Z,51.87
2018-11-10T23:20:11.361Z,49.97
2018-11-10T23:22:40.241Z,48.63
2018-11-10T23:25:11.086Z,49.63
2018-11-10T23:27:39.955Z,53.13
2018-11-10T23:30:11.147Z,45.87
2018-11-10T23:32:40.640Z,52.50
2018-11-10T23:35:10.335Z,50.73
2018-11-10T23:37:39.426Z,44.97
2018-11-10T23:40:11.135Z,47.37
2018-11-10T23:42:40.695Z,48.43
2018-11-10T23:45:09.835Z,42.93
2018-11-10T23:47:39.000Z,46.83
2018-11-10T23:50:09.716Z,47.23
2018-11-10T23:55:02.655Z,38.10
2018-11-10T23:57:31.492Z,42.93
